sensor_id;sensor_type;location;lat;lon;timestamp;pressure;altitude;pressure_sealevel;temperature;humidity
75886;BME280;64561;44.018;10.144;2022-10-31T00:01:24;102186.50;;;14.24;81.60
75886;BME280;64561;44.018;10.144;2022-10-31T00:03:51;102191.00;;;14.31;80.97
75886;BME280;64561;44.018;10.144;2022-10-31T00:06:18;102186.41;;;14.21;81.88
75886;BME280;64561;44.018;10.144;2022-10-31T00:08:57;102181.34;;;14.24;81.12
75886;BME280;64561;44.018;10.144;2022-10-31T00:11:24;102179.84;;;14.32;79.73
75886;BME280;64561;44.018;10.144;2022-10-31T00:13:52;102178.31;;;14.37;79.00
75886;BME280;64561;44.018;10.144;2022-10-31T00:16:24;102175.53;;;14.31;81.00
75886;BME280;64561;44.018;10.144;2022-10-31T00:18:52;102180.75;;;14.32;81.75
75886;BME280;64561;44.018;10.144;2022-10-31T00:21:22;102176.50;;;14.34;82.11
75886;BME280;64561;44.018;10.144;2022-10-31T00:23:49;102176.56;;;14.36;79.72
75886;BME280;64561;44.018;10.144;2022-10-31T00:26:17;102179.84;;;14.32;82.49
75886;BME280;64561;44.018;10.144;2022-10-31T00:28:44;102173.72;;;14.27;82.18
75886;BME280;64561;44.018;10.144;2022-10-31T00:31:12;102176.41;;;14.31;80.44
75886;BME280;64561;44.018;10.144;2022-10-31T00:33:40;102181.34;;;14.24;82.13
75886;BME280;64561;44.018;10.144;2022-10-31T00:36:11;102168.91;;;14.10;83.90
75886;BME280;64561;44.018;10.144;2022-10-31T00:38:40;102180.03;;;14.09;85.10
75886;BME280;64561;44.018;10.144;2022-10-31T00:41:08;102177.28;;;14.05;84.47
75886;BME280;64561;44.018;10.144;2022-10-31T00:43:35;102182.41;;;14.03;84.78
75886;BME280;64561;44.018;10.144;2022-10-31T00:46:02;102188.41;;;14.02;85.01
75886;BME280;64561;44.018;10.144;2022-10-31T00:48:29;102190.31;;;14.09;83.69
75886;BME280;64561;44.018;10.144;2022-10-31T00:50:56;102170.59;;;14.10;82.26
75886;BME280;64561;44.018;10.144;2022-10-31T00:53:24;102180.88;;;14.08;83.89
75886;BME280;64561;44.018;10.144;2022-10-31T00:55:51;102172.88;;;14.01;84.06
75886;BME280;64561;44.018;10.144;2022-10-31T00:58:18;102182.13;;;13.94;84.56
75886;BME280;64561;44.018;10.144;2022-10-31T01:00:47;102185.63;;;13.96;86.05
75886;BME280;64561;44.018;10.144;2022-10-31T01:03:30;102187.78;;;14.11;84.14
75886;BME280;64561;44.018;10.144;2022-10-31T01:06:05;102190.72;;;13.94;83.97
75886;BME280;64561;44.018;10.144;2022-10-31T01:08:34;102179.59;;;13.95;82.99
75886;BME280;64561;44.018;10.144;2022-10-31T01:11:20;102183.84;;;13.95;83.63
75886;BME280;64561;44.018;10.144;2022-10-31T01:13:50;102192.41;;;13.94;83.79
75886;BME280;64561;44.018;10.144;2022-10-31T01:16:20;102182.31;;;14.00;82.51
75886;BME280;64561;44.018;10.144;2022-10-31T01:18:48;102181.56;;;14.04;81.12
75886;BME280;64561;44.018;10.144;2022-10-31T01:21:21;102181.66;;;14.06;81.37
75886;BME280;64561;44.018;10.144;2022-10-31T01:23:49;102182.31;;;14.00;82.90
75886;BME280;64561;44.018;10.144;2022-10-31T01:26:18;102179.78;;;14.02;81.71
75886;BME280;64561;44.018;10.144;2022-10-31T01:28:57;102177.28;;;14.05;81.73
75886;BME280;64561;44.018;10.144;2022-10-31T01:31:36;102171.94;;;13.97;82.19
75886;BME280;64561;44.018;10.144;2022-10-31T01:34:04;102183.66;;;13.89;82.65
75886;BME280;64561;44.018;10.144;2022-10-31T01:36:36;102171.34;;;13.79;83.38
75886;BME280;64561;44.018;10.144;2022-10-31T01:39:06;102179.75;;;13.75;85.23
75886;BME280;64561;44.018;10.144;2022-10-31T01:41:37;102174.41;;;13.68;85.30
75886;BME280;64561;44.018;10.144;2022-10-31T01:46:44;102171.03;;;13.69;84.76
75886;BME280;64561;44.018;10.144;2022-10-31T01:52:29;102159.44;;;13.82;84.20
75886;BME280;64561;44.018;10.144;2022-10-31T01:55:01;102161.16;;;13.82;84.51
75886;BME280;64561;44.018;10.144;2022-10-31T01:57:31;102163.81;;;13.85;82.53
75886;BME280;64561;44.018;10.144;2022-10-31T02:00:03;102163.28;;;13.95;80.43
75886;BME280;64561;44.018;10.144;2022-10-31T02:02:38;102164.25;;;13.99;81.15
75886;BME280;64561;44.018;10.144;2022-10-31T02:05:09;102162.47;;;13.96;81.15
75886;BME280;64561;44.018;10.144;2022-10-31T02:07:48;102166.38;;;13.85;81.85
75886;BME280;64561;44.018;10.144;2022-10-31T02:10:21;102160.94;;;13.76;82.66
75886;BME280;64561;44.018;10.144;2022-10-31T02:12:51;102153.13;;;13.72;83.12
75886;BME280;64561;44.018;10.144;2022-10-31T02:15:19;102159.56;;;13.60;83.40
75886;BME280;64561;44.018;10.144;2022-10-31T02:17:47;102155.97;;;13.55;84.01
75886;BME280;64561;44.018;10.144;2022-10-31T02:20:18;102155.81;;;13.50;84.96
75886;BME280;64561;44.018;10.144;2022-10-31T02:31:20;102147.31;;;13.53;84.39
75886;BME280;64561;44.018;10.144;2022-10-31T02:36:46;102146.69;;;13.60;82.21
75886;BME280;64561;44.018;10.144;2022-10-31T02:39:24;102147.88;;;13.69;80.86
75886;BME280;64561;44.018;10.144;2022-10-31T02:44:41;102150.66;;;13.76;79.54
75886;BME280;64561;44.018;10.144;2022-10-31T02:47:17;102141.03;;;13.70;80.15
75886;BME280;64561;44.018;10.144;2022-10-31T02:50:02;102140.06;;;13.66;81.15
75886;BME280;64561;44.018;10.144;2022-10-31T02:52:32;102150.16;;;13.60;82.51
75886;BME280;64561;44.018;10.144;2022-10-31T02:58:12;102145.53;;;13.50;81.82
75886;BME280;64561;44.018;10.144;2022-10-31T03:06:02;102144.88;;;13.30;83.23
75886;BME280;64561;44.018;10.144;2022-10-31T03:08:36;102161.16;;;13.31;82.64
75886;BME280;64561;44.018;10.144;2022-10-31T03:11:08;102150.44;;;13.18;83.68
75886;BME280;64561;44.018;10.144;2022-10-31T03:16:16;102160.44;;;13.11;85.85
75886;BME280;64561;44.018;10.144;2022-10-31T03:18:48;102165.63;;;13.12;84.83
75886;BME280;64561;44.018;10.144;2022-10-31T03:21:21;102159.75;;;13.15;85.10
75886;BME280;64561;44.018;10.144;2022-10-31T03:23:52;102170.78;;;13.12;84.39
75886;BME280;64561;44.018;10.144;2022-10-31T03:26:21;102158.94;;;13.17;83.16
75886;BME280;64561;44.018;10.144;2022-10-31T03:29:03;102169.22;;;13.17;84.62
75886;BME280;64561;44.018;10.144;2022-10-31T03:31:36;102158.63;;;13.08;84.60
75886;BME280;64561;44.018;10.144;2022-10-31T03:34:06;102158.63;;;13.08;85.37
75886;BME280;64561;44.018;10.144;2022-10-31T03:36:35;102168.91;;;13.08;85.42
75886;BME280;64561;44.018;10.144;2022-10-31T03:39:07;102167.47;;;13.16;83.78
75886;BME280;64561;44.018;10.144;2022-10-31T03:41:41;102156.34;;;13.16;82.66
75886;BME280;64561;44.018;10.144;2022-10-31T03:44:16;102169.56;;;13.02;84.21
75886;BME280;64561;44.018;10.144;2022-10-31T03:46:48;102170.38;;;13.01;85.02
75886;BME280;64561;44.018;10.144;2022-10-31T03:49:16;102164.31;;;12.99;84.06
75886;BME280;64561;44.018;10.144;2022-10-31T03:51:52;102167.22;;;13.09;83.50
75886;BME280;64561;44.018;10.144;2022-10-31T03:54:58;102167.47;;;13.16;83.24
75886;BME280;64561;44.018;10.144;2022-10-31T03:57:35;102169.41;;;13.22;83.78
75886;BME280;64561;44.018;10.144;2022-10-31T04:00:09;102172.97;;;13.25;82.04
75886;BME280;64561;44.018;10.144;2022-10-31T04:02:50;102173.94;;;13.29;82.24
75886;BME280;64561;44.018;10.144;2022-10-31T04:05:20;102169.56;;;13.26;82.89
75886;BME280;64561;44.018;10.144;2022-10-31T04:07:52;102166.75;;;13.20;81.65
75886;BME280;64561;44.018;10.144;2022-10-31T04:10:22;102167.47;;;13.16;82.85
75886;BME280;64561;44.018;10.144;2022-10-31T04:13:05;102181.84;;;13.11;83.74
75886;BME280;64561;44.018;10.144;2022-10-31T04:15:43;102174.94;;;13.09;83.41
75886;BME280;64561;44.018;10.144;2022-10-31T04:18:11;102172.53;;;13.13;81.76
75886;BME280;64561;44.018;10.144;2022-10-31T04:20:40;102175.38;;;13.21;80.93
75886;BME280;64561;44.018;10.144;2022-10-31T04:23:21;102182.53;;;13.30;80.41
75886;BME280;64561;44.018;10.144;2022-10-31T04:25:50;102182.72;;;13.34;79.52
75886;BME280;64561;44.018;10.144;2022-10-31T04:28:18;102168.00;;;13.30;79.98
75886;BME280;64561;44.018;10.144;2022-10-31T04:30:46;102173.28;;;13.35;80.77
75886;BME280;64561;44.018;10.144;2022-10-31T04:33:13;102169.44;;;13.23;80.57
75886;BME280;64561;44.018;10.144;2022-10-31T04:35:42;102175.97;;;13.14;81.79
75886;BME280;64561;44.018;10.144;2022-10-31T04:38:09;102162.13;;;13.10;81.25
75886;BME280;64561;44.018;10.144;2022-10-31T04:40:37;102165.63;;;13.12;80.91
75886;BME280;64561;44.018;10.144;2022-10-31T04:43:34;102163.88;;;13.11;80.06
75886;BME280;64561;44.018;10.144;2022-10-31T04:46:00;102177.84;;;13.18;79.96
75886;BME280;64561;44.018;10.144;2022-10-31T04:48:28;102174.25;;;13.14;80.46
75886;BME280;64561;44.018;10.144;2022-10-31T04:51:00;102174.16;;;13.11;80.11
75886;BME280;64561;44.018;10.144;2022-10-31T04:53:27;102167.56;;;12.94;80.86
75886;BME280;64561;44.018;10.144;2022-10-31T04:56:12;102180.34;;;12.92;80.87
75886;BME280;64561;44.018;10.144;2022-10-31T04:58:43;102166.41;;;12.86;80.76
75886;BME280;64561;44.018;10.144;2022-10-31T05:01:11;102158.72;;;12.87;80.54
75886;BME280;64561;44.018;10.144;2022-10-31T05:03:38;102182.88;;;12.91;80.78
75886;BME280;64561;44.018;10.144;2022-10-31T05:06:06;102181.16;;;12.67;82.33
75886;BME280;64561;44.018;10.144;2022-10-31T05:08:35;102171.28;;;12.55;82.50
75886;BME280;64561;44.018;10.144;2022-10-31T05:11:04;102186.81;;;12.58;83.21
75886;BME280;64561;44.018;10.144;2022-10-31T05:13:32;102180.81;;;12.58;82.59
75886;BME280;64561;44.018;10.144;2022-10-31T05:15:59;102188.63;;;12.61;82.37
75886;BME280;64561;44.018;10.144;2022-10-31T05:19:01;102185.09;;;12.59;82.43
75886;BME280;64561;44.018;10.144;2022-10-31T05:21:59;102183.81;;;12.48;82.83
75886;BME280;64561;44.018;10.144;2022-10-31T05:24:31;102182.19;;;12.50;82.43
75886;BME280;64561;44.018;10.144;2022-10-31T05:26:58;102177.69;;;12.44;83.32
75886;BME280;64561;44.018;10.144;2022-10-31T05:29:25;102172.53;;;12.43;82.87
75886;BME280;64561;44.018;10.144;2022-10-31T05:31:51;102187.75;;;12.61;82.98
75886;BME280;64561;44.018;10.144;2022-10-31T05:34:47;102184.16;;;12.57;81.81
75886;BME280;64561;44.018;10.144;2022-10-31T05:37:32;102182.31;;;12.53;81.87
75886;BME280;64561;44.018;10.144;2022-10-31T05:39:59;102176.19;;;12.49;82.31
75886;BME280;64561;44.018;10.144;2022-10-31T05:42:34;102183.06;;;12.50;83.21
75886;BME280;64561;44.018;10.144;2022-10-31T05:45:01;102186.72;;;12.57;82.26
75886;BME280;64561;44.018;10.144;2022-10-31T05:50:47;102177.22;;;12.54;81.72
75886;BME280;64561;44.018;10.144;2022-10-31T05:53:15;102182.66;;;12.62;80.47
75886;BME280;64561;44.018;10.144;2022-10-31T05:55:43;102189.41;;;12.60;80.52
75886;BME280;64561;44.018;10.144;2022-10-31T05:58:16;102195.50;;;12.62;80.82
75886;BME280;64561;44.018;10.144;2022-10-31T06:01:03;102185.72;;;12.52;82.19
75886;BME280;64561;44.018;10.144;2022-10-31T06:03:30;102185.34;;;12.43;82.79
75886;BME280;64561;44.018;10.144;2022-10-31T06:06:00;102187.22;;;12.47;82.18
75886;BME280;64561;44.018;10.144;2022-10-31T06:08:35;102196.97;;;12.55;80.97
75886;BME280;64561;44.018;10.144;2022-10-31T06:11:06;102195.97;;;12.52;83.56
75886;BME280;64561;44.018;10.144;2022-10-31T06:14:05;102197.72;;;12.53;82.75
75886;BME280;64561;44.018;10.144;2022-10-31T06:17:05;102191.75;;;12.54;83.01
75886;BME280;64561;44.018;10.144;2022-10-31T06:19:52;102199.81;;;12.63;82.29
75886;BME280;64561;44.018;10.144;2022-10-31T06:22:21;102208.69;;;12.71;81.68
75886;BME280;64561;44.018;10.144;2022-10-31T06:24:48;102190.66;;;12.70;81.50
75886;BME280;64561;44.018;10.144;2022-10-31T06:27:31;102202.56;;;12.68;84.31
75886;BME280;64561;44.018;10.144;2022-10-31T06:30:05;102200.59;;;12.61;84.25
75886;BME280;64561;44.018;10.144;2022-10-31T06:32:34;102201.00;;;12.49;84.76
75886;BME280;64561;44.018;10.144;2022-10-31T06:35:03;102199.84;;;12.42;84.99
75886;BME280;64561;44.018;10.144;2022-10-31T06:37:32;102193.75;;;12.39;85.81
75886;BME280;64561;44.018;10.144;2022-10-31T06:40:07;102200.81;;;12.44;85.71
75886;BME280;64561;44.018;10.144;2022-10-31T06:43:00;102209.84;;;12.57;87.29
75886;BME280;64561;44.018;10.144;2022-10-31T06:45:30;102218.00;;;12.69;86.92
75886;BME280;64561;44.018;10.144;2022-10-31T06:48:13;102232.03;;;12.77;87.97
75886;BME280;64561;44.018;10.144;2022-10-31T06:51:02;102221.88;;;12.80;88.37
75886;BME280;64561;44.018;10.144;2022-10-31T06:53:29;102236.03;;;12.93;88.96
75886;BME280;64561;44.018;10.144;2022-10-31T06:55:57;102236.31;;;13.01;89.55
75886;BME280;64561;44.018;10.144;2022-10-31T06:58:24;102240.84;;;13.08;90.02
75886;BME280;64561;44.018;10.144;2022-10-31T07:00:58;102237.09;;;13.22;89.91
75886;BME280;64561;44.018;10.144;2022-10-31T07:03:26;102233.25;;;13.34;90.06
75886;BME280;64561;44.018;10.144;2022-10-31T07:05:55;102238.28;;;13.55;89.39
75886;BME280;64561;44.018;10.144;2022-10-31T07:08:26;102245.53;;;13.66;89.16
75886;BME280;64561;44.018;10.144;2022-10-31T07:10:55;102260.44;;;13.77;88.83
75886;BME280;64561;44.018;10.144;2022-10-31T07:13:24;102261.59;;;13.85;88.73
75886;BME280;64561;44.018;10.144;2022-10-31T07:16:07;102262.63;;;13.90;89.39
75886;BME280;64561;44.018;10.144;2022-10-31T07:18:35;102264.59;;;13.99;89.34
75886;BME280;64561;44.018;10.144;2022-10-31T07:21:05;102270.84;;;14.05;88.90
75886;BME280;64561;44.018;10.144;2022-10-31T07:23:35;102277.22;;;14.16;88.54
75886;BME280;64561;44.018;10.144;2022-10-31T07:26:25;102275.00;;;14.27;88.30
75886;BME280;64561;44.018;10.144;2022-10-31T07:28:57;102276.25;;;14.40;88.08
75886;BME280;64561;44.018;10.144;2022-10-31T07:31:30;102280.19;;;14.54;87.46
75886;BME280;64561;44.018;10.144;2022-10-31T07:34:03;102275.41;;;14.67;86.01
75886;BME280;64561;44.018;10.144;2022-10-31T07:36:59;102286.06;;;14.79;86.49
75886;BME280;64561;44.018;10.144;2022-10-31T07:39:29;102286.34;;;14.88;85.93
75886;BME280;64561;44.018;10.144;2022-10-31T07:41:58;102283.09;;;14.94;85.25
75886;BME280;64561;44.018;10.144;2022-10-31T07:44:29;102280.66;;;14.98;85.75
75886;BME280;64561;44.018;10.144;2022-10-31T07:47:17;102295.47;;;15.05;86.85
75886;BME280;64561;44.018;10.144;2022-10-31T07:50:02;102292.13;;;15.09;86.29
75886;BME280;64561;44.018;10.144;2022-10-31T07:53:10;102288.84;;;15.14;85.79
75886;BME280;64561;44.018;10.144;2022-10-31T07:55:47;102303.69;;;15.22;84.88
75886;BME280;64561;44.018;10.144;2022-10-31T07:58:15;102295.31;;;15.31;85.03
75886;BME280;64561;44.018;10.144;2022-10-31T08:00:45;102301.56;;;15.39;84.36
75886;BME280;64561;44.018;10.144;2022-10-31T08:03:18;102299.16;;;15.45;84.39
75886;BME280;64561;44.018;10.144;2022-10-31T08:06:15;102288.97;;;15.50;84.70
75886;BME280;64561;44.018;10.144;2022-10-31T08:08:50;102302.13;;;15.59;84.59
75886;BME280;64561;44.018;10.144;2022-10-31T08:11:18;102298.28;;;15.75;84.73
75886;BME280;64561;44.018;10.144;2022-10-31T08:13:46;102303.06;;;15.93;84.64
75886;BME280;64561;44.018;10.144;2022-10-31T08:16:14;102303.41;;;16.07;83.86
75886;BME280;64561;44.018;10.144;2022-10-31T08:18:50;102295.97;;;16.19;83.26
75886;BME280;64561;44.018;10.144;2022-10-31T08:21:18;102298.88;;;16.33;82.64
75886;BME280;64561;44.018;10.144;2022-10-31T08:23:45;102294.78;;;16.42;81.74
75886;BME280;64561;44.018;10.144;2022-10-31T08:26:13;102292.44;;;16.52;81.90
75886;BME280;64561;44.018;10.144;2022-10-31T08:28:44;102290.75;;;16.54;81.11
75886;BME280;64561;44.018;10.144;2022-10-31T08:31:13;102288.16;;;16.52;81.60
75886;BME280;64561;44.018;10.144;2022-10-31T08:33:40;102295.84;;;16.51;81.86
75886;BME280;64561;44.018;10.144;2022-10-31T08:36:26;102299.84;;;16.74;82.52
75886;BME280;64561;44.018;10.144;2022-10-31T08:39:14;102287.94;;;16.79;81.50
75886;BME280;64561;44.018;10.144;2022-10-31T08:41:41;102285.16;;;16.73;81.46
75886;BME280;64561;44.018;10.144;2022-10-31T08:44:11;102298.22;;;16.78;81.34
75886;BME280;64561;44.018;10.144;2022-10-31T08:46:39;102299.13;;;16.80;80.08
75886;BME280;64561;44.018;10.144;2022-10-31T08:49:06;102287.19;;;16.86;80.71
75886;BME280;64561;44.018;10.144;2022-10-31T08:51:33;102302.41;;;17.12;80.26
75886;BME280;64561;44.018;10.144;2022-10-31T08:54:00;102299.91;;;17.17;79.96
75886;BME280;64561;44.018;10.144;2022-10-31T08:56:53;102306.75;;;17.14;80.24
75886;BME280;64561;44.018;10.144;2022-10-31T08:59:32;102305.06;;;17.15;80.61
75886;BME280;64561;44.018;10.144;2022-10-31T09:02:19;102302.78;;;17.30;80.66
75886;BME280;64561;44.018;10.144;2022-10-31T09:04:48;102305.56;;;17.41;80.50
75886;BME280;64561;44.018;10.144;2022-10-31T09:07:16;102305.63;;;17.43;79.63
75886;BME280;64561;44.018;10.144;2022-10-31T09:09:47;102307.84;;;17.70;79.62
75886;BME280;64561;44.018;10.144;2022-10-31T09:12:31;102299.63;;;17.91;78.81
75886;BME280;64561;44.018;10.144;2022-10-31T09:15:10;102310.81;;;17.88;78.63
75886;BME280;64561;44.018;10.144;2022-10-31T09:17:48;102302.00;;;17.78;78.83
75886;BME280;64561;44.018;10.144;2022-10-31T09:20:37;102303.78;;;17.82;79.01
75886;BME280;64561;44.018;10.144;2022-10-31T09:23:16;102308.31;;;17.96;78.20
75886;BME280;64561;44.018;10.144;2022-10-31T09:25:44;102304.78;;;17.89;79.10
75886;BME280;64561;44.018;10.144;2022-10-31T09:28:35;102297.19;;;18.00;78.44
75886;BME280;64561;44.018;10.144;2022-10-31T09:31:10;102296.47;;;18.09;79.11
75886;BME280;64561;44.018;10.144;2022-10-31T09:33:52;102297.41;;;18.12;79.46
75886;BME280;64561;44.018;10.144;2022-10-31T09:36:42;102306.13;;;18.17;79.70
75886;BME280;64561;44.018;10.144;2022-10-31T09:39:20;102297.50;;;18.18;79.45
75886;BME280;64561;44.018;10.144;2022-10-31T09:50:38;102285.38;;;18.73;77.54
75886;BME280;64561;44.018;10.144;2022-10-31T09:53:41;102281.09;;;18.76;76.25
75886;BME280;64561;44.018;10.144;2022-10-31T09:56:17;102287.84;;;18.67;76.97
75886;BME280;64561;44.018;10.144;2022-10-31T09:58:47;102285.19;;;18.61;77.06
75886;BME280;64561;44.018;10.144;2022-10-31T10:07:44;102282.63;;;18.64;74.75
75886;BME280;64561;44.018;10.144;2022-10-31T10:19:25;102275.44;;;19.06;72.11
75886;BME280;64561;44.018;10.144;2022-10-31T10:22:26;102273.97;;;19.29;71.17
75886;BME280;64561;44.018;10.144;2022-10-31T10:25:21;102265.63;;;19.58;69.25
75886;BME280;64561;44.018;10.144;2022-10-31T10:33:16;102264.03;;;19.69;67.45
75886;BME280;64561;44.018;10.144;2022-10-31T10:40:59;102255.50;;;19.84;67.62
75886;BME280;64561;44.018;10.144;2022-10-31T10:43:34;102258.19;;;19.92;66.31
75886;BME280;64561;44.018;10.144;2022-10-31T10:51:33;102259.06;;;19.95;67.22
75886;BME280;64561;44.018;10.144;2022-10-31T10:54:41;102261.72;;;20.03;67.76
75886;BME280;64561;44.018;10.144;2022-10-31T10:57:22;102256.56;;;20.07;67.52
75886;BME280;64561;44.018;10.144;2022-10-31T10:59:53;102257.50;;;20.17;65.89
75886;BME280;64561;44.018;10.144;2022-10-31T11:02:23;102264.47;;;20.24;65.99
75886;BME280;64561;44.018;10.144;2022-10-31T11:04:51;102262.78;;;20.28;66.63
75886;BME280;64561;44.018;10.144;2022-10-31T11:07:19;102242.84;;;20.30;66.09
75886;BME280;64561;44.018;10.144;2022-10-31T11:09:46;102242.03;;;20.36;66.27
75886;BME280;64561;44.018;10.144;2022-10-31T11:14:50;102236.88;;;20.43;65.06
75886;BME280;64561;44.018;10.144;2022-10-31T11:17:29;102237.75;;;20.44;64.94
75886;BME280;64561;44.018;10.144;2022-10-31T11:22:46;102236.97;;;20.57;62.93
75886;BME280;64561;44.018;10.144;2022-10-31T11:27:46;102232.63;;;20.58;61.40
75886;BME280;64561;44.018;10.144;2022-10-31T11:30:14;102231.78;;;20.60;61.58
75886;BME280;64561;44.018;10.144;2022-10-31T11:32:48;102230.13;;;20.70;62.09
75886;BME280;64561;44.018;10.144;2022-10-31T11:35:16;102238.75;;;20.63;61.63
75886;BME280;64561;44.018;10.144;2022-10-31T11:37:46;102235.16;;;20.48;63.18
75886;BME280;64561;44.018;10.144;2022-10-31T11:40:16;102230.81;;;20.44;63.33
75886;BME280;64561;44.018;10.144;2022-10-31T11:42:43;102241.34;;;20.63;61.19
75886;BME280;64561;44.018;10.144;2022-10-31T11:45:19;102237.84;;;20.61;60.32
75886;BME280;64561;44.018;10.144;2022-10-31T11:47:54;102238.75;;;20.66;60.15
75886;BME280;64561;44.018;10.144;2022-10-31T11:50:37;102239.69;;;20.80;59.97
75886;BME280;64561;44.018;10.144;2022-10-31T11:53:18;102237.97;;;20.81;60.14
75886;BME280;64561;44.018;10.144;2022-10-31T11:56:03;102221.41;;;20.62;61.44
75886;BME280;64561;44.018;10.144;2022-10-31T11:58:32;102224.03;;;20.65;60.96
75886;BME280;64561;44.018;10.144;2022-10-31T12:00:59;102231.88;;;20.77;60.48
75886;BME280;64561;44.018;10.144;2022-10-31T12:06:16;102224.09;;;20.83;58.09
75886;BME280;64561;44.018;10.144;2022-10-31T12:08:45;102224.91;;;20.68;59.79
75886;BME280;64561;44.018;10.144;2022-10-31T12:11:35;102224.06;;;20.82;59.79
75886;BME280;64561;44.018;10.144;2022-10-31T12:17:21;102207.59;;;20.80;59.59
75886;BME280;64561;44.018;10.144;2022-10-31T12:23:03;102212.81;;;20.84;60.27
75886;BME280;64561;44.018;10.144;2022-10-31T12:25:54;102201.56;;;20.85;58.60
75886;BME280;64561;44.018;10.144;2022-10-31T12:31:39;102195.53;;;20.97;58.60
75886;BME280;64561;44.018;10.144;2022-10-31T12:37:09;102185.16;;;21.06;59.51
75886;BME280;64561;44.018;10.144;2022-10-31T12:43:04;102180.78;;;21.02;59.01
75886;BME280;64561;44.018;10.144;2022-10-31T12:45:53;102175.59;;;21.07;58.16
75886;BME280;64561;44.018;10.144;2022-10-31T12:59:42;102164.31;;;21.03;59.37
75886;BME280;64561;44.018;10.144;2022-10-31T13:02:27;102165.19;;;21.07;58.79
75886;BME280;64561;44.018;10.144;2022-10-31T13:05:27;102165.19;;;21.07;59.17
75886;BME280;64561;44.018;10.144;2022-10-31T13:08:39;102158.22;;;21.12;59.99
75886;BME280;64561;44.018;10.144;2022-10-31T13:11:12;102168.63;;;21.06;58.20
75886;BME280;64561;44.018;10.144;2022-10-31T13:13:42;102174.69;;;20.98;59.44
75886;BME280;64561;44.018;10.144;2022-10-31T13:16:15;102171.22;;;20.98;60.90
75886;BME280;64561;44.018;10.144;2022-10-31T13:18:55;102162.56;;;20.97;59.84
75886;BME280;64561;44.018;10.144;2022-10-31T13:21:32;102164.28;;;20.95;59.55
75886;BME280;64561;44.018;10.144;2022-10-31T13:24:04;102166.84;;;20.82;60.06
75886;BME280;64561;44.018;10.144;2022-10-31T13:26:43;102159.03;;;20.85;60.00
75886;BME280;64561;44.018;10.144;2022-10-31T13:29:29;102150.38;;;20.84;60.46
75886;BME280;64561;44.018;10.144;2022-10-31T13:32:03;102146.03;;;20.91;60.09
75886;BME280;64561;44.018;10.144;2022-10-31T13:34:37;102150.38;;;20.87;59.96
75886;BME280;64561;44.018;10.144;2022-10-31T13:37:27;102141.69;;;20.76;60.87
75886;BME280;64561;44.018;10.144;2022-10-31T13:45:20;102146.03;;;20.86;61.28
75886;BME280;64561;44.018;10.144;2022-10-31T13:48:17;102139.13;;;20.85;60.94
75886;BME280;64561;44.018;10.144;2022-10-31T13:50:59;102140.88;;;20.97;60.79
75886;BME280;64561;44.018;10.144;2022-10-31T13:56:24;102135.69;;;21.00;60.69
75886;BME280;64561;44.018;10.144;2022-10-31T14:01:28;102145.22;;;20.98;60.83
75886;BME280;64561;44.018;10.144;2022-10-31T14:04:06;102143.47;;;20.95;60.29
75886;BME280;64561;44.018;10.144;2022-10-31T14:09:38;102148.69;;;21.03;58.15
75886;BME280;64561;44.018;10.144;2022-10-31T14:15:17;102140.88;;;21.03;59.45
75886;BME280;64561;44.018;10.144;2022-10-31T14:17:51;102134.81;;;21.10;57.93
75886;BME280;64561;44.018;10.144;2022-10-31T14:20:25;102140.91;;;21.06;57.51
75886;BME280;64561;44.018;10.144;2022-10-31T14:22:58;102141.75;;;21.04;58.15
75886;BME280;64561;44.018;10.144;2022-10-31T14:25:29;102141.75;;;20.97;58.64
75886;BME280;64561;44.018;10.144;2022-10-31T14:27:58;102142.56;;;20.93;58.92
75886;BME280;64561;44.018;10.144;2022-10-31T14:30:27;102133.06;;;20.94;58.13
75886;BME280;64561;44.018;10.144;2022-10-31T14:33:01;102139.13;;;20.91;57.45
75886;BME280;64561;44.018;10.144;2022-10-31T14:36:07;102133.91;;;20.79;58.41
75886;BME280;64561;44.018;10.144;2022-10-31T14:39:00;102140.78;;;20.66;58.92
75886;BME280;64561;44.018;10.144;2022-10-31T14:47:31;102145.94;;;20.54;59.21
75886;BME280;64561;44.018;10.144;2022-10-31T14:53:04;102144.91;;;20.27;60.13
75886;BME280;64561;44.018;10.144;2022-10-31T14:55:51;102132.72;;;20.11;60.77
75886;BME280;64561;44.018;10.144;2022-10-31T14:58:22;102130.94;;;20.05;61.13
75886;BME280;64561;44.018;10.144;2022-10-31T15:00:55;102126.53;;;19.94;61.10
75886;BME280;64561;44.018;10.144;2022-10-31T15:05:58;102123.84;;;19.81;61.62
75886;BME280;64561;44.018;10.144;2022-10-31T15:08:30;102116.03;;;19.75;61.96
75886;BME280;64561;44.018;10.144;2022-10-31T15:10:57;102123.81;;;19.72;62.41
75886;BME280;64561;44.018;10.144;2022-10-31T15:13:24;102117.69;;;19.66;62.41
75886;BME280;64561;44.018;10.144;2022-10-31T15:15:54;102109.84;;;19.59;62.78
75886;BME280;64561;44.018;10.144;2022-10-31T15:18:28;102107.16;;;19.47;62.99
75886;BME280;64561;44.018;10.144;2022-10-31T15:20:56;102106.25;;;19.45;63.53
75886;BME280;64561;44.018;10.144;2022-10-31T15:23:28;102113.13;;;19.40;64.01
75886;BME280;64561;44.018;10.144;2022-10-31T15:26:04;102116.56;;;19.36;64.35
75886;BME280;64561;44.018;10.144;2022-10-31T15:28:32;102110.44;;;19.28;64.69
75886;BME280;64561;44.018;10.144;2022-10-31T15:31:01;102117.31;;;19.23;65.18
75886;BME280;64561;44.018;10.144;2022-10-31T15:33:31;102115.50;;;19.15;65.39
75886;BME280;64561;44.018;10.144;2022-10-31T15:36:05;102122.34;;;19.07;65.28
75886;BME280;64561;44.018;10.144;2022-10-31T15:38:32;102125.72;;;18.97;65.48